Time;durP1;ratioP1;P1;durP2;ratioP2;P2;SDS_P1;SDS_P2;PMS_P1;PMS_P2;Temp;Humidity;BMP_temperature;BMP_pressure;BME280_temperature;BME280_humidity;BME280_pressure;Samples;Min_cycle;Max_cycle;Signal;HPM_P1;HPM_P2
2024/04/15 00:13:45;;;;;;;6.90;3.00;;;;;;;8.19;66.33;100042.04;680889;1266;139200;-82
2024/04/15 00:28:48;;;;;;;13.40;3.50;;;;;;;7.96;66.61;100016.48;680718;1266;138818;-82
2024/04/15 00:43:50;;;;;;;10.90;4.80;;;;;;;7.81;66.88;99996.18;680905;1264;138426;-83
2024/04/15 00:58:54;;;;;;;89.90;40.10;;;;;;;7.88;67.02;99981.63;681050;1266;139775;-82
2024/04/15 01:13:57;;;;;;;17.60;5.80;;;;;;;7.65;67.53;99945.20;680860;1266;140069;-82
2024/04/15 01:29:00;;;;;;;13.40;5.00;;;;;;;7.25;68.59;99924.59;680848;1266;138962;-82
2024/04/15 01:44:03;;;;;;;37.60;12.40;;;;;;;7.21;69.38;99932.57;680657;1268;139162;-83
2024/04/15 01:59:06;;;;;;;15.20;7.40;;;;;;;7.29;70.18;99933.83;680906;1265;138958;-83
2024/04/15 02:14:09;;;;;;;11.60;4.00;;;;;;;7.23;71.74;99917.44;680756;1266;140522;-82
2024/04/15 02:29:12;;;;;;;11.50;3.80;;;;;;;7.52;72.98;99921.05;680567;1263;138850;-82
2024/04/15 02:44:15;;;;;;;7.50;2.70;;;;;;;7.79;73.07;99898.85;680813;1268;139194;-82
2024/04/15 02:59:18;;;;;;;6.80;2.90;;;;;;;7.87;73.40;99891.20;680974;1266;138342;-82
2024/04/15 03:14:21;;;;;;;7.80;2.30;;;;;;;8.06;73.72;99883.20;680483;1279;138617;-82
2024/04/15 03:29:24;;;;;;;6.40;2.30;;;;;;;8.27;73.62;99889.80;680727;1268;138610;-82
2024/04/15 03:44:27;;;;;;;10.70;3.20;;;;;;;8.32;74.00;99903.67;680790;1263;138972;-82
2024/04/15 03:59:31;;;;;;;5.40;2.50;;;;;;;8.33;74.21;99893.44;680915;1266;139740;-82
2024/04/15 04:14:34;;;;;;;8.00;2.80;;;;;;;8.35;74.56;99908.77;680884;1266;138720;-82
2024/04/15 04:29:37;;;;;;;7.00;2.70;;;;;;;8.44;74.66;99889.09;680687;1267;138843;-82
2024/04/15 04:44:40;;;;;;;18.20;5.50;;;;;;;8.51;74.93;99865.98;680859;1266;138781;-81
2024/04/15 04:59:43;;;;;;;15.40;6.90;;;;;;;8.58;75.70;99871.81;680838;1266;140305;-81
2024/04/15 05:14:49;;;;;;;11.20;5.00;;;;;;;8.76;76.10;99869.08;680398;1266;139410;-82
2024/04/15 05:29:52;;;;;;;12.70;4.10;;;;;;;9.03;76.02;99859.77;680570;1280;139728;-81
2024/04/15 05:44:55;;;;;;;11.30;3.60;;;;;;;9.32;75.82;99840.61;680974;1268;139915;-81
2024/04/15 05:59:58;;;;;;;8.10;3.30;;;;;;;9.81;75.13;99836.17;680708;1266;139173;-82
2024/04/15 06:15:02;;;;;;;15.60;3.80;;;;;;;10.31;74.29;99839.98;680503;1266;139296;-81
2024/04/15 06:30:06;;;;;;;10.30;2.90;;;;;;;11.42;72.95;99812.93;680492;1269;140092;-82
2024/04/15 06:45:09;;;;;;;8.10;2.60;;;;;;;12.79;69.94;99803.95;680582;1266;139153;-82
2024/04/15 07:00:13;;;;;;;8.80;3.40;;;;;;;13.99;66.96;99794.27;680662;1266;138854;-79
2024/04/15 07:15:16;;;;;;;10.30;3.60;;;;;;;16.30;63.50;99799.25;680614;1268;138855;-82
2024/04/15 07:30:19;;;;;;;5.40;2.50;;;;;;;17.27;60.23;99794.27;680811;1279;138218;-81
2024/04/15 07:45:27;;;;;;;9.70;4.00;;;;;;;15.24;58.72;99766.56;680803;1264;138996;-82
2024/04/15 08:00:31;;;;;;;7.50;1.80;;;;;;;15.64;58.76;99752.41;680479;1266;137996;-81
2024/04/15 08:15:34;;;;;;;23.00;6.90;;;;;;;17.15;57.10;99737.78;680607;1268;140004;-81
2024/04/15 08:30:37;;;;;;;7.40;1.80;;;;;;;18.20;55.17;99727.16;680836;1267;138182;-79
2024/04/15 08:45:43;;;;;;;11.10;4.70;;;;;;;19.73;53.56;99713.72;680894;1266;139742;-81
2024/04/15 09:00:48;;;;;;;43.00;24.70;;;;;;;18.69;50.31;99716.35;680713;1264;139787;-80
2024/04/15 09:15:52;;;;;;;20.90;5.00;;;;;;;18.05;50.06;99700.63;680450;1268;139788;-80
2024/04/15 09:30:56;;;;;;;9.80;3.50;;;;;;;19.78;49.70;99700.87;680711;1269;139543;-79
2024/04/15 09:45:59;;;;;;;6.10;2.80;;;;;;;18.04;49.38;99693.16;681454;1267;138399;-78
2024/04/15 10:01:05;;;;;;;5.60;1.90;;;;;;;18.77;50.19;99685.67;681434;1264;138529;-79
2024/04/15 10:16:20;;;;;;;5.90;2.00;;;;;;;20.01;48.05;99674.39;680745;1273;139629;-79
2024/04/15 10:31:51;;;;;;;13.00;2.40;;;;;;;19.91;46.70;99659.56;680938;1264;138964;-79
2024/04/15 10:46:54;;;;;;;10.80;2.30;;;;;;;18.36;46.35;99642.13;680783;1267;183661;-79
2024/04/15 11:02:00;;;;;;;3.90;1.70;;;;;;;19.28;47.48;99626.30;680663;1267;139789;-80
2024/04/15 11:17:04;;;;;;;13.60;3.60;;;;;;;19.93;47.41;99612.09;680715;1268;138917;-82
2024/04/15 11:32:12;;;;;;;8.30;5.00;;;;;;;20.71;46.59;99595.93;680444;1266;139283;-82
2024/04/15 11:47:19;;;;;;;21.90;9.00;;;;;;;19.90;46.56;99577.43;680765;1267;139124;-79
2024/04/15 12:02:22;;;;;;;7.40;3.20;;;;;;;20.24;47.09;99545.98;680721;1266;138557;-79
2024/04/15 12:17:25;;;;;;;21.90;5.90;;;;;;;20.78;44.77;99533.73;680966;1266;139811;-78
2024/04/15 12:32:28;;;;;;;144.40;18.90;;;;;;;20.59;45.28;99519.75;680707;1263;138745;-81
2024/04/15 12:47:33;;;;;;;14.40;7.70;;;;;;;20.56;46.26;99498.42;680888;1265;139078;-81
2024/04/15 13:02:38;;;;;;;6.50;2.10;;;;;;;20.18;43.58;99472.63;681018;1266;140558;-81
2024/04/15 13:17:42;;;;;;;11.50;2.20;;;;;;;18.80;43.25;99453.23;680882;1270;140039;-81
2024/04/15 13:32:45;;;;;;;10.60;4.40;;;;;;;17.99;45.23;99437.82;680764;1263;139064;-81
2024/04/15 13:47:49;;;;;;;16.80;8.50;;;;;;;18.06;46.67;99422.48;681009;1268;138928;-81
2024/04/15 14:02:52;;;;;;;8.50;2.30;;;;;;;18.46;46.09;99418.45;680829;1263;139082;-81
2024/04/15 14:17:55;;;;;;;8.20;4.50;;;;;;;18.14;45.60;99410.81;680973;1266;138784;-80
2024/04/15 14:33:00;;;;;;;6.20;2.80;;;;;;;17.51;45.16;99402.00;680790;1263;138307;-81
2024/04/15 14:48:06;;;;;;;11.00;2.50;;;;;;;17.34;45.91;99387.73;681086;1268;138146;-81
2024/04/15 15:03:09;;;;;;;8.40;2.50;;;;;;;17.04;44.35;99360.65;680921;1266;138148;-82
2024/04/15 15:18:14;;;;;;;8.20;3.60;;;;;;;17.77;44.75;99339.33;680839;1266;138626;-82
2024/04/15 15:33:17;;;;;;;10.70;2.90;;;;;;;17.99;45.12;99324.85;680871;1268;138919;-79
2024/04/15 15:48:20;;;;;;;9.30;3.10;;;;;;;17.67;45.43;99302.94;680954;1268;138498;-79
2024/04/15 16:03:24;;;;;;;15.30;5.30;;;;;;;17.60;46.25;99266.60;680871;1263;138932;-80
2024/04/15 16:18:28;;;;;;;8.50;3.70;;;;;;;17.77;46.77;99242.20;681030;1267;139205;-77
2024/04/15 16:33:31;;;;;;;9.40;2.50;;;;;;;17.97;46.48;99196.95;681085;1264;138231;-76
2024/04/15 16:48:35;;;;;;;20.40;9.00;;;;;;;17.67;46.45;99161.73;681397;1263;138947;-75
2024/04/15 17:03:38;;;;;;;111.80;50.80;;;;;;;16.90;46.20;99144.30;681187;1267;138840;-76
2024/04/15 17:18:42;;;;;;;25.60;13.90;;;;;;;15.79;47.39;99127.14;681116;1263;139005;-75
2024/04/15 17:33:46;;;;;;;16.10;7.40;;;;;;;15.33;48.73;99129.98;681085;1265;139079;-76
2024/04/15 17:48:50;;;;;;;253.20;86.90;;;;;;;14.20;49.96;99103.33;681473;1262;138481;-75
2024/04/15 18:03:53;;;;;;;171.20;47.20;;;;;;;13.40;51.53;99077.72;681323;1263;138588;-77
2024/04/15 18:18:56;;;;;;;70.20;26.40;;;;;;;12.03;53.71;99073.51;681933;1264;138680;-77
2024/04/15 18:34:00;;;;;;;35.50;14.50;;;;;;;11.58;55.02;99052.05;681632;1265;138938;-76
2024/04/15 18:49:03;;;;;;;39.30;14.30;;;;;;;11.17;55.89;99025.23;681443;1263;138275;-77
2024/04/15 19:04:08;;;;;;;36.10;13.10;;;;;;;11.05;57.30;99010.26;681108;1267;138376;-78
2024/04/15 19:19:12;;;;;;;25.20;9.30;;;;;;;11.26;57.29;98991.21;681255;1267;138279;-77
2024/04/15 19:34:16;;;;;;;18.60;7.70;;;;;;;11.37;57.23;98973.70;681210;1268;138282;-76
2024/04/15 19:49:19;;;;;;;25.00;9.70;;;;;;;11.50;58.13;98956.50;681315;1263;138016;-78
2024/04/15 20:04:22;;;;;;;40.90;14.80;;;;;;;11.44;59.66;98929.52;680973;1267;138979;-78
2024/04/15 20:19:26;;;;;;;20.50;8.90;;;;;;;11.48;62.52;98906.60;680944;1268;138105;-76
2024/04/15 20:34:29;;;;;;;14.20;7.30;;;;;;;11.32;66.50;98908.70;681012;1269;138511;-78
2024/04/15 20:49:34;;;;;;;13.60;6.70;;;;;;;11.28;68.23;98893.63;681282;1267;139718;-77
2024/04/15 21:04:37;;;;;;;13.30;6.20;;;;;;;11.04;70.34;98874.83;680921;1269;139805;-76
2024/04/15 21:19:41;;;;;;;11.30;6.00;;;;;;;10.87;71.41;98840.31;681036;1268;139720;-76
2024/04/15 21:34:44;;;;;;;21.10;7.50;;;;;;;10.74;72.53;98807.14;681318;1267;140539;-76
2024/04/15 21:49:47;;;;;;;20.80;7.50;;;;;;;10.51;72.30;98746.45;681208;1264;139010;-76
2024/04/15 22:04:54;;;;;;;27.10;9.40;;;;;;;10.28;72.43;98680.80;680945;1268;139593;-76
2024/04/15 22:20:04;;;;;;;29.40;11.60;;;;;;;10.21;72.00;98664.08;681254;1268;138903;-76
2024/04/15 22:35:07;;;;;;;18.90;8.00;;;;;;;10.05;73.09;98676.86;681345;1268;140399;-76
2024/04/15 22:50:11;;;;;;;23.70;10.90;;;;;;;9.97;74.56;98666.30;681153;1267;172142;-76
2024/04/15 23:05:15;;;;;;;25.20;10.10;;;;;;;9.80;74.36;98651.49;681121;1265;140271;-76
2024/04/15 23:20:20;;;;;;;21.30;9.60;;;;;;;9.88;75.22;98659.88;681125;1268;138968;-76
2024/04/15 23:35:23;;;;;;;22.60;10.80;;;;;;;10.02;75.50;98634.80;681460;1268;138637;-77
2024/04/15 23:50:28;;;;;;;25.20;11.80;;;;;;;10.07;74.96;98595.09;681252;1263;139631;-77
